Time;durP1;ratioP1;P1;durP2;ratioP2;P2;SDS_P1;SDS_P2;PMS_P1;PMS_P2;Temp;Humidity;BMP_temperature;BMP_pressure;BME280_temperature;BME280_humidity;BME280_pressure;Samples;Min_cycle;Max_cycle;Signal;HPM_P1;HPM_P2
2023/11/21 00:01:41;;;;;;;2.40;0.95;;;;;;;;;;5043422;28;20390;-80
2023/11/21 00:04:07;;;;;;;2.33;1.05;;;;;;;;;;5042910;28;20418;-81
2023/11/21 00:06:34;;;;;;;2.05;0.77;;;;;;;;;;5043732;28;20386;-81
2023/11/21 00:09:00;;;;;;;3.90;0.80;;;;;;;;;;5043772;28;20398;-81
2023/11/21 00:11:26;;;;;;;4.43;1.08;;;;;;;;;;5042558;28;20475;-80
2023/11/21 00:13:52;;;;;;;3.13;0.70;;;;;;;;;;5042359;28;20383;-81
2023/11/21 00:16:18;;;;;;;2.28;0.85;;;;;;;;;;5042710;28;20386;-81
2023/11/21 00:18:46;;;;;;;2.58;0.88;;;;;;;;;;5041152;28;20837;-80
2023/11/21 00:21:12;;;;;;;2.67;1.20;;;;;;;;;;5042866;28;20763;-81
2023/11/21 00:23:38;;;;;;;2.97;1.05;;;;;;;;;;5042472;28;20436;-81
2023/11/21 00:26:04;;;;;;;4.07;1.80;;;;;;;;;;5042699;28;20399;-81
2023/11/21 00:28:30;;;;;;;5.68;2.13;;;;;;;;;;5042715;28;20879;-81
2023/11/21 00:30:56;;;;;;;3.70;1.95;;;;;;;;;;5041873;28;20387;-81
2023/11/21 00:33:22;;;;;;;3.47;1.98;;;;;;;;;;5042200;28;20852;-81
2023/11/21 00:35:48;;;;;;;5.30;2.70;;;;;;;;;;5027411;28;20417;-81
2023/11/21 00:38:14;;;;;;;4.55;1.33;;;;;;;;;;5042918;28;20379;-81
2023/11/21 00:40:40;;;;;;;2.15;0.90;;;;;;;;;;5043119;28;20407;-81
2023/11/21 00:43:06;;;;;;;3.10;1.13;;;;;;;;;;5042648;28;20379;-81
2023/11/21 00:45:32;;;;;;;3.95;1.00;;;;;;;;;;5043446;28;20395;-81
2023/11/21 00:47:58;;;;;;;3.25;0.82;;;;;;;;;;5043028;28;20402;-81
2023/11/21 00:50:24;;;;;;;3.67;1.03;;;;;;;;;;5041454;28;20569;-81
2023/11/21 00:52:51;;;;;;;3.17;0.90;;;;;;;;;;5043124;28;20725;-81
2023/11/21 00:55:18;;;;;;;2.83;0.80;;;;;;;;;;5043188;28;20410;-81
2023/11/21 00:57:44;;;;;;;1.60;0.60;;;;;;;;;;5043195;28;20390;-81
2023/11/21 01:00:17;;;;;;;2.78;1.05;;;;;;;;;;5043051;28;20391;-81
2023/11/21 01:02:47;;;;;;;4.05;1.10;;;;;;;;;;5044476;28;20414;-81
2023/11/21 01:05:13;;;;;;;5.55;1.60;;;;;;;;;;5047139;28;20429;-81
2023/11/21 01:07:39;;;;;;;4.20;1.80;;;;;;;;;;5046396;28;20383;-80
2023/11/21 01:10:07;;;;;;;4.07;1.85;;;;;;;;;;5046509;28;20390;-81
2023/11/21 01:12:34;;;;;;;4.63;1.40;;;;;;;;;;5046537;28;20461;-80
2023/11/21 01:15:00;;;;;;;4.25;1.35;;;;;;;;;;5047339;28;20402;-81
2023/11/21 01:17:27;;;;;;;2.93;1.13;;;;;;;;;;5045881;28;20416;-80
2023/11/21 01:19:53;;;;;;;4.10;1.10;;;;;;;;;;5046139;28;20383;-81
2023/11/21 01:22:25;;;;;;;3.10;1.08;;;;;;;;;;5046505;28;20394;-80
2023/11/21 01:24:51;;;;;;;3.88;1.33;;;;;;;;;;5045753;28;20808;-81
2023/11/21 01:27:18;;;;;;;3.58;1.30;;;;;;;;;;5045244;28;20800;-81
2023/11/21 01:29:44;;;;;;;4.20;1.30;;;;;;;;;;5046226;28;20437;-81
2023/11/21 01:32:10;;;;;;;4.40;1.40;;;;;;;;;;5045190;28;20414;-81
2023/11/21 01:34:37;;;;;;;2.85;1.02;;;;;;;;;;5044620;28;20398;-81
2023/11/21 01:37:05;;;;;;;4.47;1.48;;;;;;;;;;5041700;28;20450;-80
2023/11/21 01:39:31;;;;;;;4.80;1.30;;;;;;;;;;5044317;28;20860;-81
2023/11/21 01:42:01;;;;;;;4.47;1.30;;;;;;;;;;5044602;28;20395;-80
2023/11/21 01:44:27;;;;;;;4.38;1.38;;;;;;;;;;5026508;28;20447;-81
2023/11/21 01:46:53;;;;;;;3.95;1.48;;;;;;;;;;5044251;28;20432;-81
2023/11/21 01:49:20;;;;;;;4.13;1.33;;;;;;;;;;5044921;28;20387;-80
2023/11/21 01:51:48;;;;;;;3.92;1.17;;;;;;;;;;5044198;28;20393;-81
2023/11/21 01:54:23;;;;;;;3.30;1.60;;;;;;;;;;5044731;28;20379;-81
2023/11/21 01:56:49;;;;;;;4.55;1.20;;;;;;;;;;5044470;28;20841;-81
2023/11/21 01:59:18;;;;;;;2.72;1.25;;;;;;;;;;5044008;28;20417;-81
2023/11/21 02:01:46;;;;;;;4.82;1.42;;;;;;;;;;5044957;28;20444;-81
2023/11/21 02:04:12;;;;;;;3.28;1.08;;;;;;;;;;5044814;28;20411;-81
2023/11/21 02:06:38;;;;;;;3.97;1.20;;;;;;;;;;5044733;28;20468;-80
2023/11/21 02:09:05;;;;;;;2.45;1.00;;;;;;;;;;5044838;28;20386;-80
2023/11/21 02:11:32;;;;;;;3.20;1.40;;;;;;;;;;5045037;28;20478;-81
2023/11/21 02:14:00;;;;;;;4.93;1.30;;;;;;;;;;5044106;28;20478;-81
2023/11/21 02:16:26;;;;;;;3.92;1.58;;;;;;;;;;5045095;28;20891;-80
2023/11/21 02:18:53;;;;;;;4.32;1.50;;;;;;;;;;5030515;28;20401;-81
2023/11/21 02:21:19;;;;;;;4.03;1.60;;;;;;;;;;5025494;28;20427;-81
2023/11/21 02:23:46;;;;;;;4.43;1.55;;;;;;;;;;5024958;28;20416;-80
2023/11/21 02:26:13;;;;;;;3.90;1.60;;;;;;;;;;5025089;28;20392;-80
2023/11/21 02:28:39;;;;;;;3.75;1.42;;;;;;;;;;5024837;28;20381;-80
2023/11/21 02:31:07;;;;;;;4.82;1.40;;;;;;;;;;5023948;28;20380;-80
2023/11/21 02:33:33;;;;;;;4.25;1.17;;;;;;;;;;5023718;28;20399;-80
2023/11/21 02:36:00;;;;;;;5.95;1.17;;;;;;;;;;5024481;28;20870;-80
2023/11/21 02:38:26;;;;;;;3.13;1.00;;;;;;;;;;5034650;28;21191;-80
2023/11/21 02:40:53;;;;;;;3.15;1.23;;;;;;;;;;5044984;28;20391;-80
2023/11/21 02:43:19;;;;;;;5.18;1.08;;;;;;;;;;5044366;28;20852;-80
2023/11/21 02:45:45;;;;;;;3.40;1.23;;;;;;;;;;5044811;28;20402;-80
2023/11/21 02:48:11;;;;;;;3.25;1.00;;;;;;;;;;5044476;28;20387;-80
2023/11/21 02:50:40;;;;;;;5.88;1.25;;;;;;;;;;5044454;28;20391;-80
2023/11/21 02:53:06;;;;;;;3.03;1.13;;;;;;;;;;5044534;28;20391;-80
2023/11/21 02:55:35;;;;;;;3.35;1.17;;;;;;;;;;5044796;28;20383;-80
2023/11/21 02:58:01;;;;;;;4.82;1.38;;;;;;;;;;5045225;28;20900;-80
2023/11/21 03:00:28;;;;;;;5.45;1.63;;;;;;;;;;5044971;28;20379;-80
2023/11/21 03:02:55;;;;;;;2.77;1.20;;;;;;;;;;5044503;28;20446;-80
2023/11/21 03:05:21;;;;;;;4.90;1.63;;;;;;;;;;5042193;28;20419;-80
2023/11/21 03:07:47;;;;;;;3.33;1.58;;;;;;;;;;5044398;28;20379;-80
2023/11/21 03:10:13;;;;;;;5.23;1.20;;;;;;;;;;5045388;28;20391;-80
2023/11/21 03:12:40;;;;;;;5.38;1.80;;;;;;;;;;5044502;28;20395;-80
2023/11/21 03:15:07;;;;;;;4.75;1.50;;;;;;;;;;5044038;28;20458;-80
2023/11/21 03:17:35;;;;;;;4.57;1.50;;;;;;;;;;5044038;28;20486;-80
2023/11/21 03:20:03;;;;;;;2.20;1.30;;;;;;;;;;5044444;28;20760;-80
2023/11/21 03:22:29;;;;;;;3.95;1.55;;;;;;;;;;5043786;28;20379;-80
2023/11/21 03:24:55;;;;;;;5.07;1.48;;;;;;;;;;5043417;28;20474;-80
2023/11/21 03:27:21;;;;;;;3.70;1.40;;;;;;;;;;5044755;28;20418;-80
2023/11/21 03:29:49;;;;;;;4.95;1.55;;;;;;;;;;5044104;28;20390;-80
2023/11/21 03:32:15;;;;;;;5.65;1.73;;;;;;;;;;5044461;28;20379;-80
2023/11/21 03:34:55;;;;;;;3.88;1.42;;;;;;;;;;5044284;28;20383;-80
2023/11/21 03:37:21;;;;;;;3.92;1.40;;;;;;;;;;5042218;28;20391;-80
2023/11/21 03:39:47;;;;;;;4.07;1.25;;;;;;;;;;5042894;28;20399;-80
2023/11/21 03:42:13;;;;;;;2.63;0.88;;;;;;;;;;5044631;28;20419;-80
2023/11/21 03:44:39;;;;;;;3.00;0.90;;;;;;;;;;5044037;28;20411;-80
2023/11/21 03:47:05;;;;;;;2.97;1.00;;;;;;;;;;5043145;28;20433;-80
2023/11/21 03:49:31;;;;;;;4.28;0.98;;;;;;;;;;5041104;28;20427;-80
2023/11/21 03:51:57;;;;;;;5.03;1.30;;;;;;;;;;5044976;28;20463;-80
2023/11/21 03:54:23;;;;;;;3.75;1.10;;;;;;;;;;5044516;28;20391;-80
2023/11/21 03:56:49;;;;;;;2.47;1.00;;;;;;;;;;5043856;28;20383;-80
2023/11/21 03:59:15;;;;;;;4.10;1.50;;;;;;;;;;5043321;28;20413;-80
2023/11/21 04:01:41;;;;;;;3.45;1.15;;;;;;;;;;5043555;28;20383;-80
2023/11/21 04:04:07;;;;;;;3.08;1.08;;;;;;;;;;5042958;28;20442;-80
2023/11/21 04:06:33;;;;;;;3.23;1.20;;;;;;;;;;5043967;28;20402;-80
2023/11/21 04:09:00;;;;;;;1.90;1.00;;;;;;;;;;5043667;28;20411;-80
2023/11/21 04:11:25;;;;;;;3.20;1.27;;;;;;;;;;5042325;28;20384;-80
2023/11/21 04:13:51;;;;;;;4.00;1.15;;;;;;;;;;5043065;28;20479;-80
2023/11/21 04:16:18;;;;;;;2.60;1.20;;;;;;;;;;5042465;28;20393;-81
2023/11/21 04:18:44;;;;;;;3.45;1.50;;;;;;;;;;5041150;28;20383;-81
2023/11/21 04:21:10;;;;;;;4.25;1.70;;;;;;;;;;5043337;28;20433;-81
2023/11/21 04:23:36;;;;;;;3.57;1.20;;;;;;;;;;5042892;28;20867;-80
2023/11/21 04:26:02;;;;;;;4.47;1.17;;;;;;;;;;5043103;28;20411;-81
2023/11/21 04:28:28;;;;;;;3.50;1.00;;;;;;;;;;5043670;28;20405;-81
2023/11/21 04:30:55;;;;;;;2.13;0.80;;;;;;;;;;5043278;28;20391;-81
2023/11/21 04:33:22;;;;;;;3.90;1.10;;;;;;;;;;5031617;28;20454;-80
2023/11/21 04:35:48;;;;;;;5.37;1.07;;;;;;;;;;5023101;28;20435;-80
2023/11/21 04:38:14;;;;;;;3.15;0.95;;;;;;;;;;5024361;28;20385;-81
2023/11/21 04:40:40;;;;;;;2.23;0.90;;;;;;;;;;5036619;28;20750;-81
2023/11/21 04:43:06;;;;;;;2.63;0.82;;;;;;;;;;5043517;28;20446;-81
2023/11/21 04:45:32;;;;;;;2.25;0.90;;;;;;;;;;5043437;28;20745;-81
2023/11/21 04:47:58;;;;;;;1.67;0.80;;;;;;;;;;5032566;28;20392;-81
2023/11/21 04:50:27;;;;;;;2.85;0.95;;;;;;;;;;5023151;28;20460;-81
2023/11/21 04:52:53;;;;;;;2.35;0.80;;;;;;;;;;5023595;28;20468;-81
2023/11/21 04:55:19;;;;;;;2.50;0.80;;;;;;;;;;5006705;28;20428;-81
2023/11/21 04:57:46;;;;;;;2.60;0.80;;;;;;;;;;5024353;28;20415;-81
2023/11/21 05:00:13;;;;;;;2.58;1.00;;;;;;;;;;5023946;28;20399;-81
2023/11/21 05:02:39;;;;;;;3.47;0.88;;;;;;;;;;5024058;28;20403;-81
2023/11/21 05:05:05;;;;;;;2.22;0.80;;;;;;;;;;5035739;28;20425;-81
2023/11/21 05:07:32;;;;;;;2.92;0.80;;;;;;;;;;5040429;28;20426;-81
2023/11/21 05:09:58;;;;;;;2.17;0.80;;;;;;;;;;5043877;28;20383;-81
2023/11/21 05:12:25;;;;;;;3.35;0.80;;;;;;;;;;5042400;28;20387;-81
2023/11/21 05:14:51;;;;;;;1.90;1.00;;;;;;;;;;5043487;28;20756;-81
2023/11/21 05:17:17;;;;;;;2.10;1.10;;;;;;;;;;5043108;28;20395;-81
2023/11/21 05:19:45;;;;;;;4.15;0.75;;;;;;;;;;5042422;28;20390;-81
2023/11/21 05:22:12;;;;;;;2.33;0.80;;;;;;;;;;5042570;28;20395;-81
2023/11/21 05:24:41;;;;;;;3.60;0.90;;;;;;;;;;5042616;28;20426;-81
2023/11/21 05:27:09;;;;;;;1.83;0.80;;;;;;;;;;5043074;28;21244;-81
2023/11/21 05:29:35;;;;;;;3.67;1.00;;;;;;;;;;5042373;28;20758;-81
2023/11/21 05:32:01;;;;;;;1.90;0.80;;;;;;;;;;5041990;28;20461;-81
2023/11/21 05:34:27;;;;;;;3.08;0.80;;;;;;;;;;5007731;28;20384;-81
2023/11/21 05:36:53;;;;;;;1.98;0.75;;;;;;;;;;5022438;28;20404;-81
2023/11/21 05:39:41;;;;;;;2.60;1.00;;;;;;;;;;5018638;28;20731;-81
2023/11/21 05:42:09;;;;;;;2.53;1.10;;;;;;;;;;5033243;28;20379;-81
2023/11/21 05:44:35;;;;;;;2.90;0.93;;;;;;;;;;5043410;28;20470;-81
2023/11/21 05:47:00;;;;;;;2.30;1.00;;;;;;;;;;5042573;28;20483;-81
2023/11/21 05:49:26;;;;;;;1.90;0.70;;;;;;;;;;5044502;28;20470;-81
2023/11/21 05:51:55;;;;;;;3.83;0.80;;;;;;;;;;5045990;28;20379;-81
2023/11/21 05:54:22;;;;;;;2.65;0.93;;;;;;;;;;5046781;28;20387;-81
2023/11/21 05:56:48;;;;;;;1.77;0.90;;;;;;;;;;5046841;28;20406;-81
2023/11/21 05:59:14;;;;;;;2.78;0.85;;;;;;;;;;5046185;28;20383;-81
2023/11/21 06:01:40;;;;;;;2.43;0.80;;;;;;;;;;5046791;28;20414;-81
2023/11/21 06:04:09;;;;;;;2.55;0.90;;;;;;;;;;5046101;28;20407;-81
2023/11/21 06:06:35;;;;;;;1.92;0.80;;;;;;;;;;5047099;28;20398;-81
2023/11/21 06:09:01;;;;;;;1.92;0.80;;;;;;;;;;5045896;28;20433;-81
2023/11/21 06:11:27;;;;;;;3.53;1.00;;;;;;;;;;5046527;28;20468;-81
2023/11/21 06:13:53;;;;;;;2.63;0.85;;;;;;;;;;5045664;28;20433;-81
2023/11/21 06:16:19;;;;;;;2.97;1.15;;;;;;;;;;5046173;28;20383;-82
2023/11/21 06:18:46;;;;;;;2.78;1.08;;;;;;;;;;5046009;28;20463;-81
2023/11/21 06:21:13;;;;;;;2.97;1.27;;;;;;;;;;5045468;28;20398;-81
2023/11/21 06:23:39;;;;;;;4.80;1.50;;;;;;;;;;5045944;28;20406;-81
2023/11/21 06:26:06;;;;;;;3.75;1.48;;;;;;;;;;5046526;28;20430;-81
2023/11/21 06:28:32;;;;;;;3.30;1.40;;;;;;;;;;5046105;28;20387;-81
2023/11/21 06:30:58;;;;;;;3.17;1.42;;;;;;;;;;5045451;28;20407;-81
2023/11/21 06:33:27;;;;;;;3.17;1.30;;;;;;;;;;5044637;28;20410;-81
2023/11/21 06:35:53;;;;;;;3.88;1.83;;;;;;;;;;5044773;28;20383;-81
2023/11/21 06:38:19;;;;;;;2.80;1.30;;;;;;;;;;5044414;28;20432;-81
2023/11/21 06:40:46;;;;;;;3.55;1.30;;;;;;;;;;5045442;28;20407;-81
2023/11/21 06:43:12;;;;;;;3.60;1.30;;;;;;;;;;5039708;28;20384;-81
2023/11/21 06:45:38;;;;;;;3.13;1.30;;;;;;;;;;5029618;28;20387;-81
2023/11/21 06:48:04;;;;;;;3.92;1.40;;;;;;;;;;5041864;28;20391;-81
2023/11/21 06:50:30;;;;;;;3.97;1.42;;;;;;;;;;5041918;28;20860;-81
2023/11/21 06:52:56;;;;;;;3.25;1.50;;;;;;;;;;5045031;28;20383;-81
2023/11/21 06:55:22;;;;;;;3.72;1.50;;;;;;;;;;5043684;28;20390;-81
2023/11/21 06:57:48;;;;;;;3.78;1.58;;;;;;;;;;5043552;28;20399;-81
2023/11/21 07:00:17;;;;;;;3.35;1.40;;;;;;;;;;5044394;28;20725;-81
2023/11/21 07:02:43;;;;;;;3.55;1.50;;;;;;;;;;5044235;28;20403;-82
2023/11/21 07:05:09;;;;;;;3.20;1.27;;;;;;;;;;5044946;28;20411;-81
2023/11/21 07:07:36;;;;;;;2.70;1.53;;;;;;;;;;5042005;28;20391;-81
2023/11/21 07:10:03;;;;;;;2.20;1.30;;;;;;;;;;5044369;28;20387;-81
2023/11/21 07:12:30;;;;;;;4.57;1.60;;;;;;;;;;5044980;28;20849;-81
2023/11/21 07:14:57;;;;;;;3.45;2.15;;;;;;;;;;5044595;28;20398;-81
2023/11/21 07:17:23;;;;;;;6.03;2.63;;;;;;;;;;5044440;28;20431;-81
2023/11/21 07:19:49;;;;;;;3.38;2.17;;;;;;;;;;5044401;28;20387;-81
2023/11/21 07:22:21;;;;;;;4.13;2.13;;;;;;;;;;5043480;28;20375;-81
2023/11/21 07:24:49;;;;;;;4.40;2.15;;;;;;;;;;5044410;28;20418;-81
2023/11/21 07:27:15;;;;;;;3.65;1.85;;;;;;;;;;5043318;28;20391;-81
2023/11/21 07:29:41;;;;;;;4.07;1.80;;;;;;;;;;5027874;28;20888;-81
2023/11/21 07:32:09;;;;;;;3.00;1.50;;;;;;;;;;5045437;28;20383;-81
2023/11/21 07:34:35;;;;;;;2.70;1.42;;;;;;;;;;5044935;28;20382;-81
2023/11/21 07:37:01;;;;;;;2.42;1.40;;;;;;;;;;5045295;28;20395;-81
2023/11/21 07:39:27;;;;;;;2.15;1.45;;;;;;;;;;5045400;28;20447;-81
2023/11/21 07:41:54;;;;;;;2.43;1.00;;;;;;;;;;5046011;28;20445;-81
2023/11/21 07:44:20;;;;;;;2.88;1.27;;;;;;;;;;5033474;28;20755;-81
2023/11/21 07:46:46;;;;;;;3.60;1.00;;;;;;;;;;5026001;28;20479;-81
2023/11/21 07:49:21;;;;;;;2.55;1.45;;;;;;;;;;5024956;28;20392;-82
2023/11/21 07:51:47;;;;;;;3.85;1.88;;;;;;;;;;5025758;28;20400;-81
2023/11/21 07:54:12;;;;;;;4.53;2.17;;;;;;;;;;5025662;28;20392;-81
2023/11/21 07:56:39;;;;;;;4.82;2.28;;;;;;;;;;5024899;28;20851;-81
2023/11/21 07:59:04;;;;;;;5.50;1.83;;;;;;;;;;5025101;28;20389;-81
2023/11/21 08:01:31;;;;;;;3.72;1.60;;;;;;;;;;5038349;28;20403;-82
2023/11/21 08:04:01;;;;;;;3.60;1.83;;;;;;;;;;5040850;28;20462;-82
2023/11/21 08:06:28;;;;;;;3.03;1.40;;;;;;;;;;5042045;28;20375;-82
2023/11/21 08:08:54;;;;;;;2.83;1.30;;;;;;;;;;5041332;28;20867;-82
2023/11/21 08:11:21;;;;;;;3.20;1.80;;;;;;;;;;5040425;28;20481;-82
2023/11/21 08:13:47;;;;;;;2.60;1.77;;;;;;;;;;5041743;28;20406;-82
2023/11/21 08:16:13;;;;;;;3.15;1.40;;;;;;;;;;5042645;28;20410;-83
2023/11/21 08:18:41;;;;;;;2.50;1.38;;;;;;;;;;5044243;28;20403;-82
2023/11/21 08:21:07;;;;;;;3.13;1.33;;;;;;;;;;5044524;28;20398;-82
2023/11/21 08:23:34;;;;;;;5.03;1.80;;;;;;;;;;5044724;28;20407;-81
2023/11/21 08:26:01;;;;;;;3.63;1.67;;;;;;;;;;5043960;28;20403;-82
2023/11/21 08:28:27;;;;;;;5.30;1.90;;;;;;;;;;5044512;28;20417;-82
2023/11/21 08:30:56;;;;;;;2.55;1.40;;;;;;;;;;5042502;28;20391;-82
2023/11/21 08:33:22;;;;;;;3.17;1.60;;;;;;;;;;5042978;28;20741;-82
2023/11/21 08:35:51;;;;;;;3.17;1.90;;;;;;;;;;5040596;28;20402;-82
2023/11/21 08:38:17;;;;;;;3.42;1.90;;;;;;;;;;5042911;28;20383;-82
2023/11/21 08:40:44;;;;;;;4.13;2.40;;;;;;;;;;5043869;28;20398;-82
2023/11/21 08:43:11;;;;;;;3.57;1.97;;;;;;;;;;5043350;28;20387;-81
2023/11/21 08:45:37;;;;;;;6.28;2.20;;;;;;;;;;5034840;28;20507;-81
2023/11/21 08:48:04;;;;;;;2.83;1.85;;;;;;;;;;5023345;28;20392;-81
2023/11/21 08:50:30;;;;;;;3.08;1.92;;;;;;;;;;5036866;28;20391;-82
2023/11/21 08:52:56;;;;;;;2.35;1.60;;;;;;;;;;5042434;28;20383;-82
2023/11/21 08:55:22;;;;;;;2.58;1.50;;;;;;;;;;5042291;28;20391;-82
2023/11/21 08:57:48;;;;;;;4.30;2.10;;;;;;;;;;5040803;28;20387;-82
2023/11/21 09:00:16;;;;;;;2.70;1.38;;;;;;;;;;5040459;28;20390;-82
2023/11/21 09:02:42;;;;;;;4.05;3.65;;;;;;;;;;5041602;28;20777;-82
2023/11/21 09:05:13;;;;;;;3.90;2.28;;;;;;;;;;5041545;28;20461;-82
2023/11/21 09:07:40;;;;;;;2.00;1.50;;;;;;;;;;5041946;28;20801;-82
2023/11/21 09:10:07;;;;;;;2.88;1.60;;;;;;;;;;5041639;28;20390;-82
2023/11/21 09:12:33;;;;;;;4.43;1.90;;;;;;;;;;5041502;28;20476;-82
2023/11/21 09:14:59;;;;;;;2.92;1.75;;;;;;;;;;5041072;28;20462;-82
2023/11/21 09:17:25;;;;;;;2.17;1.90;;;;;;;;;;5041978;28;20423;-81
2023/11/21 09:19:51;;;;;;;3.15;2.00;;;;;;;;;;5042868;28;20404;-81
2023/11/21 09:22:18;;;;;;;2.40;2.13;;;;;;;;;;5041607;28;20379;-81
2023/11/21 09:24:44;;;;;;;3.45;2.15;;;;;;;;;;5044289;28;20748;-81
2023/11/21 09:27:11;;;;;;;3.87;2.23;;;;;;;;;;5044648;28;20383;-82
2023/11/21 09:29:40;;;;;;;2.55;2.35;;;;;;;;;;5043537;28;20379;-82
2023/11/21 09:32:08;;;;;;;1.65;1.55;;;;;;;;;;5045141;28;20386;-81
2023/11/21 09:34:38;;;;;;;2.50;1.70;;;;;;;;;;5045083;28;20383;-81
2023/11/21 09:37:05;;;;;;;2.28;2.08;;;;;;;;;;5046224;28;20435;-81
2023/11/21 09:39:31;;;;;;;2.53;1.50;;;;;;;;;;5046555;28;20885;-81
2023/11/21 09:42:00;;;;;;;1.50;1.40;;;;;;;;;;5046643;28;20394;-81
2023/11/21 09:44:35;;;;;;;2.70;1.80;;;;;;;;;;5046189;28;20509;-81
2023/11/21 09:47:01;;;;;;;1.80;1.30;;;;;;;;;;5041556;28;20894;-81
2023/11/21 09:49:29;;;;;;;1.73;1.10;;;;;;;;;;5046596;28;20911;-81
2023/11/21 09:51:59;;;;;;;2.42;1.10;;;;;;;;;;5046379;28;20383;-81
2023/11/21 09:54:29;;;;;;;1.87;1.30;;;;;;;;;;5046998;28;20390;-81
2023/11/21 09:56:55;;;;;;;3.08;1.33;;;;;;;;;;5045843;28;20394;-82
2023/11/21 09:59:22;;;;;;;4.70;2.30;;;;;;;;;;5046170;28;20379;-82
2023/11/21 10:01:48;;;;;;;2.35;1.60;;;;;;;;;;5045017;28;20878;-81
2023/11/21 10:04:14;;;;;;;2.85;1.50;;;;;;;;;;5045925;28;20414;-81
2023/11/21 10:06:45;;;;;;;2.63;1.60;;;;;;;;;;5046164;28;20498;-82
2023/11/21 10:09:12;;;;;;;4.63;3.10;;;;;;;;;;5045895;28;20395;-82
2023/11/21 10:11:41;;;;;;;2.87;1.87;;;;;;;;;;5045624;28;20472;-82
2023/11/21 10:14:09;;;;;;;3.50;1.90;;;;;;;;;;5046068;28;20387;-82
2023/11/21 10:16:37;;;;;;;2.60;1.38;;;;;;;;;;5045937;28;20454;-82
2023/11/21 10:19:06;;;;;;;2.60;1.52;;;;;;;;;;5046592;28;20455;-82
2023/11/21 10:21:33;;;;;;;1.55;1.25;;;;;;;;;;5045313;28;20387;-82
2023/11/21 10:23:59;;;;;;;1.77;1.23;;;;;;;;;;5046103;28;20474;-82
2023/11/21 10:26:26;;;;;;;2.35;1.58;;;;;;;;;;5044549;28;20394;-82
2023/11/21 10:28:59;;;;;;;2.60;1.30;;;;;;;;;;5044984;28;20720;-82
2023/11/21 10:31:29;;;;;;;1.50;1.23;;;;;;;;;;5045796;28;20384;-82
2023/11/21 10:33:55;;;;;;;1.63;1.40;;;;;;;;;;5044310;28;20491;-82
2023/11/21 10:36:30;;;;;;;2.47;1.30;;;;;;;;;;5044678;28;20398;-82
2023/11/21 10:38:57;;;;;;;2.75;1.10;;;;;;;;;;5045210;28;20395;-82
2023/11/21 10:41:26;;;;;;;1.75;1.58;;;;;;;;;;5026634;28;20387;-82
2023/11/21 10:43:55;;;;;;;2.00;1.47;;;;;;;;;;5043606;28;20503;-82
2023/11/21 10:46:23;;;;;;;1.48;1.38;;;;;;;;;;5040697;28;20460;-81
2023/11/21 10:48:54;;;;;;;1.92;1.38;;;;;;;;;;5044871;28;20387;-82
2023/11/21 10:51:21;;;;;;;1.55;1.40;;;;;;;;;;5044353;28;20402;-82
2023/11/21 10:53:48;;;;;;;2.05;1.55;;;;;;;;;;5042724;28;20449;-82
2023/11/21 10:56:20;;;;;;;1.33;1.23;;;;;;;;;;5040324;28;20398;-82
2023/11/21 10:58:47;;;;;;;2.17;1.60;;;;;;;;;;5043939;28;20383;-82
2023/11/21 11:01:16;;;;;;;2.30;1.52;;;;;;;;;;5045445;28;20849;-81
2023/11/21 11:03:43;;;;;;;2.38;1.80;;;;;;;;;;5044632;28;20485;-81
2023/11/21 11:06:11;;;;;;;2.20;2.00;;;;;;;;;;5045334;28;20395;-81
2023/11/21 11:08:37;;;;;;;2.40;2.20;;;;;;;;;;5045040;28;20878;-81
2023/11/21 11:11:03;;;;;;;2.35;1.40;;;;;;;;;;5045870;28;20387;-81
2023/11/21 11:13:30;;;;;;;1.43;1.03;;;;;;;;;;5043718;28;20386;-81
2023/11/21 11:16:02;;;;;;;1.48;0.90;;;;;;;;;;5042752;28;20736;-82
2023/11/21 11:18:31;;;;;;;1.30;0.97;;;;;;;;;;5041747;28;20386;-81
2023/11/21 11:21:07;;;;;;;1.30;1.20;;;;;;;;;;5042932;28;20383;-82
2023/11/21 11:23:33;;;;;;;1.20;1.10;;;;;;;;;;5038697;28;20394;-81
2023/11/21 11:25:59;;;;;;;1.13;1.02;;;;;;;;;;5042520;28;20387;-82
2023/11/21 11:28:36;;;;;;;0.63;0.60;;;;;;;;;;5041412;28;20395;-82
2023/11/21 11:31:08;;;;;;;0.60;0.57;;;;;;;;;;5042172;28;20387;-82
2023/11/21 11:33:37;;;;;;;0.90;0.80;;;;;;;;;;5044742;28;20383;-82
2023/11/21 11:36:29;;;;;;;1.88;0.90;;;;;;;;;;5043790;28;20532;-82
2023/11/21 11:38:56;;;;;;;1.40;1.00;;;;;;;;;;5039239;28;20857;-82
2023/11/21 11:41:30;;;;;;;0.80;0.75;;;;;;;;;;5042437;28;20749;-81
2023/11/21 11:43:56;;;;;;;1.23;1.00;;;;;;;;;;5041651;28;20415;-81
2023/11/21 11:46:41;;;;;;;1.45;1.13;;;;;;;;;;5039294;28;20425;-81
2023/11/21 11:49:07;;;;;;;1.48;1.10;;;;;;;;;;5022638;28;20443;-81
2023/11/21 11:51:35;;;;;;;1.00;0.77;;;;;;;;;;5035989;28;20387;-81
2023/11/21 11:54:02;;;;;;;1.05;0.70;;;;;;;;;;5043218;28;20390;-81
2023/11/21 11:56:34;;;;;;;0.80;0.70;;;;;;;;;;5044284;28;20394;-81
2023/11/21 11:59:02;;;;;;;0.93;0.80;;;;;;;;;;5045174;28;20414;-81
2023/11/21 12:01:29;;;;;;;1.33;0.90;;;;;;;;;;5043591;28;20419;-81
2023/11/21 12:04:14;;;;;;;0.95;0.70;;;;;;;;;;5043901;28;20868;-81
2023/11/21 12:06:40;;;;;;;1.73;0.98;;;;;;;;;;5041879;28;20393;-81
2023/11/21 12:09:07;;;;;;;2.45;1.00;;;;;;;;;;5044758;28;20411;-81
2023/11/21 12:11:35;;;;;;;2.42;0.90;;;;;;;;;;5041528;28;20747;-81
2023/11/21 12:14:02;;;;;;;1.40;1.10;;;;;;;;;;5043541;28;20394;-81
2023/11/21 12:16:28;;;;;;;1.40;1.30;;;;;;;;;;5044635;28;20808;-81
2023/11/21 12:18:54;;;;;;;1.58;1.23;;;;;;;;;;5044438;28;20387;-81
2023/11/21 12:21:21;;;;;;;1.47;1.17;;;;;;;;;;5045414;28;20702;-81
2023/11/21 12:23:47;;;;;;;2.30;1.30;;;;;;;;;;5046038;28;20520;-82
2023/11/21 12:26:13;;;;;;;1.20;1.10;;;;;;;;;;5046412;28;20407;-81
2023/11/21 12:28:39;;;;;;;1.48;1.38;;;;;;;;;;5045857;28;20402;-81
2023/11/21 12:31:06;;;;;;;1.70;1.10;;;;;;;;;;5027388;28;20845;-81
2023/11/21 12:33:34;;;;;;;1.20;1.10;;;;;;;;;;5044586;28;20379;-81
2023/11/21 12:36:01;;;;;;;1.52;1.20;;;;;;;;;;5045075;28;20379;-81
2023/11/21 12:38:35;;;;;;;1.90;1.33;;;;;;;;;;5044867;28;20379;-81
2023/11/21 12:41:01;;;;;;;1.40;1.30;;;;;;;;;;5044823;28;20439;-81
2023/11/21 12:43:27;;;;;;;1.58;1.00;;;;;;;;;;5027723;28;20399;-81
2023/11/21 12:46:05;;;;;;;0.90;0.80;;;;;;;;;;5045254;28;20386;-81
2023/11/21 12:48:32;;;;;;;0.98;0.70;;;;;;;;;;5041204;28;20392;-81
2023/11/21 12:51:00;;;;;;;1.60;0.80;;;;;;;;;;5033340;28;20446;-81
2023/11/21 12:53:26;;;;;;;0.93;0.70;;;;;;;;;;5044228;28;20437;-81
2023/11/21 12:55:52;;;;;;;1.20;0.60;;;;;;;;;;5043943;28;20402;-81
2023/11/21 12:58:20;;;;;;;1.33;0.60;;;;;;;;;;5026439;28;20389;-81
2023/11/21 13:00:51;;;;;;;0.52;0.52;;;;;;;;;;5039963;28;20391;-81
2023/11/21 13:03:19;;;;;;;1.10;0.60;;;;;;;;;;5044536;28;20397;-81
2023/11/21 13:05:46;;;;;;;1.20;0.60;;;;;;;;;;5043651;28;20478;-81
2023/11/21 13:08:13;;;;;;;0.90;0.70;;;;;;;;;;5044575;28;20813;-81
2023/11/21 13:10:46;;;;;;;0.77;0.65;;;;;;;;;;5038482;28;20384;-81
2023/11/21 13:13:17;;;;;;;0.68;0.50;;;;;;;;;;5035452;28;20387;-81
2023/11/21 13:15:50;;;;;;;1.00;0.70;;;;;;;;;;5038987;28;20384;-81
2023/11/21 13:18:17;;;;;;;0.68;0.50;;;;;;;;;;5040341;28;20403;-81
2023/11/21 13:20:44;;;;;;;0.68;0.50;;;;;;;;;;5040061;28;20384;-81
2023/11/21 13:23:15;;;;;;;0.70;0.50;;;;;;;;;;5045123;28;20444;-81
2023/11/21 13:25:42;;;;;;;0.63;0.50;;;;;;;;;;5042990;28;20414;-81
2023/11/21 13:28:12;;;;;;;0.40;0.40;;;;;;;;;;5040145;28;20387;-81
2023/11/21 13:30:39;;;;;;;1.17;0.50;;;;;;;;;;5036812;28;20390;-81
2023/11/21 13:33:07;;;;;;;0.70;0.40;;;;;;;;;;5038568;28;20398;-83
2023/11/21 13:35:47;;;;;;;0.50;0.50;;;;;;;;;;5036191;28;20494;-80
2023/11/21 13:38:17;;;;;;;1.17;0.50;;;;;;;;;;5035330;28;20397;-80
2023/11/21 13:40:49;;;;;;;0.70;0.30;;;;;;;;;;5043998;28;20403;-81
2023/11/21 13:43:20;;;;;;;0.40;0.40;;;;;;;;;;5023947;28;20430;-81
2023/11/21 13:45:55;;;;;;;0.55;0.40;;;;;;;;;;5038093;28;20423;-81
2023/11/21 13:48:28;;;;;;;1.02;0.30;;;;;;;;;;5041292;28;20433;-81
2023/11/21 13:53:41;;;;;;;0.52;0.45;;;;;;;;;;5023770;28;20388;-81
2023/11/21 13:56:07;;;;;;;1.10;0.45;;;;;;;;;;5024429;28;20381;-81
2023/11/21 13:58:52;;;;;;;0.60;0.50;;;;;;;;;;5023984;28;20392;-81
2023/11/21 14:01:55;;;;;;;0.40;0.40;;;;;;;;;;5024074;28;20387;-81
2023/11/21 14:06:48;;;;;;;0.73;0.63;;;;;;;;;;5023901;28;20443;-81
2023/11/21 14:09:22;;;;;;;0.87;0.80;;;;;;;;;;5023628;28;20423;-81
2023/11/21 14:11:48;;;;;;;0.80;0.63;;;;;;;;;;5026492;28;20392;-81
2023/11/21 14:14:14;;;;;;;0.57;0.57;;;;;;;;;;5025934;28;20412;-81
2023/11/21 14:16:42;;;;;;;0.70;0.70;;;;;;;;;;5027144;28;20404;-81
2023/11/21 14:19:15;;;;;;;0.60;0.60;;;;;;;;;;5027068;28;20460;-81
2023/11/21 14:21:43;;;;;;;0.98;0.60;;;;;;;;;;5027733;28;20385;-82
2023/11/21 14:24:09;;;;;;;0.60;0.52;;;;;;;;;;5027506;28;20933;-81
2023/11/21 14:26:35;;;;;;;0.60;0.50;;;;;;;;;;5026976;28;20412;-81
2023/11/21 14:29:02;;;;;;;0.40;0.40;;;;;;;;;;5026782;28;20492;-81
2023/11/21 14:31:30;;;;;;;1.02;0.40;;;;;;;;;;5027433;28;20415;-81
2023/11/21 14:33:56;;;;;;;0.40;0.40;;;;;;;;;;5026658;28;20446;-81
2023/11/21 14:36:23;;;;;;;0.60;0.50;;;;;;;;;;5027323;28;20397;-81
2023/11/21 14:38:49;;;;;;;0.90;0.70;;;;;;;;;;5026595;28;20385;-81
2023/11/21 14:41:16;;;;;;;0.57;0.50;;;;;;;;;;5026167;28;20432;-81
2023/11/21 14:43:42;;;;;;;1.02;0.73;;;;;;;;;;5027342;28;20408;-81
2023/11/21 14:46:09;;;;;;;2.40;0.90;;;;;;;;;;5027074;28;20389;-81
2023/11/21 14:48:56;;;;;;;1.30;0.70;;;;;;;;;;5026650;28;20373;-81
2023/11/21 14:51:27;;;;;;;1.20;0.85;;;;;;;;;;5035937;28;20394;-81